createdAt,value
2019-05-16T00:02:08.590Z,21.70
2019-05-16T00:04:38.284Z,21.60
2019-05-16T00:07:08.202Z,21.60
2019-05-16T00:09:38.290Z,21.60
2019-05-16T00:12:08.859Z,21.60
2019-05-16T00:14:38.781Z,21.60
2019-05-16T00:17:09.459Z,21.60
2019-05-16T00:19:39.152Z,21.60
2019-05-16T00:22:08.861Z,21.60
2019-05-16T00:24:38.577Z,21.60
2019-05-16T00:27:08.479Z,21.60
2019-05-16T00:29:38.455Z,21.60
2019-05-16T00:32:08.692Z,21.60
2019-05-16T00:34:38.625Z,21.60
2019-05-16T00:37:09.377Z,21.60
2019-05-16T00:39:39.082Z,21.60
2019-05-16T00:42:08.962Z,21.60
2019-05-16T00:44:38.946Z,21.60
2019-05-16T00:47:09.625Z,21.60
2019-05-16T00:49:39.540Z,21.60
2019-05-16T00:52:09.280Z,21.60
2019-05-16T00:54:39.135Z,21.60
2019-05-16T00:57:09.079Z,21.60
2019-05-16T00:59:39.572Z,21.60
2019-05-16T01:02:09.364Z,21.60
2019-05-16T01:04:39.241Z,21.60
2019-05-16T01:07:08.968Z,21.60
2019-05-16T01:09:38.747Z,21.60
2019-05-16T01:12:08.575Z,21.60
2019-05-16T01:14:38.554Z,21.60
2019-05-16T01:17:08.605Z,21.60
2019-05-16T01:19:38.659Z,21.60
2019-05-16T01:22:08.472Z,21.60
2019-05-16T01:24:41.418Z,21.60
2019-05-16T01:27:09.728Z,21.60
2019-05-16T01:29:39.506Z,21.60
2019-05-16T01:32:09.260Z,21.60
2019-05-16T01:34:39.088Z,21.60
2019-05-16T01:37:08.847Z,21.60
2019-05-16T01:39:38.560Z,21.60
2019-05-16T01:42:09.207Z,21.60
2019-05-16T01:44:38.997Z,21.60
2019-05-16T01:47:09.071Z,21.60
2019-05-16T01:49:38.903Z,21.60
2019-05-16T01:52:08.735Z,21.60
2019-05-16T01:54:38.839Z,21.60
2019-05-16T01:57:08.813Z,21.60
2019-05-16T01:59:38.484Z,21.60
2019-05-16T02:02:08.498Z,21.60
2019-05-16T02:04:38.263Z,21.60
2019-05-16T02:07:08.576Z,21.60
2019-05-16T02:09:38.568Z,21.60
2019-05-16T02:12:10.825Z,21.60
2019-05-16T02:14:39.710Z,21.60
2019-05-16T02:17:11.237Z,21.60
2019-05-16T02:19:42.108Z,21.60
2019-05-16T02:22:12.502Z,21.60
2019-05-16T02:24:42.178Z,21.60
2019-05-16T02:27:11.865Z,21.60
2019-05-16T02:29:41.525Z,21.60
2019-05-16T02:32:11.745Z,21.60
2019-05-16T02:34:41.894Z,21.60
2019-05-16T02:37:24.492Z,21.60
2019-05-16T02:39:43.477Z,21.60
2019-05-16T02:42:13.302Z,21.60
2019-05-16T02:44:43.004Z,21.60
2019-05-16T02:47:12.693Z,21.60
2019-05-16T02:49:42.437Z,21.60
2019-05-16T02:52:12.171Z,21.60
2019-05-16T02:54:41.971Z,21.50
2019-05-16T02:57:11.736Z,21.60
2019-05-16T02:59:41.780Z,21.60
2019-05-16T03:02:11.798Z,21.60
2019-05-16T03:04:44.362Z,21.50
2019-05-16T03:07:30.232Z,21.50
2019-05-16T03:09:46.072Z,21.50
2019-05-16T03:12:15.983Z,21.50
2019-05-16T03:14:46.807Z,21.50
2019-05-16T03:17:21.446Z,21.50
2019-05-16T03:19:52.701Z,21.50
2019-05-16T03:22:24.429Z,21.50
2019-05-16T03:24:54.247Z,21.50
2019-05-16T03:27:24.017Z,21.50
2019-05-16T03:29:53.730Z,21.50
2019-05-16T03:32:24.526Z,21.50
2019-05-16T03:34:55.545Z,21.50
2019-05-16T03:37:25.396Z,21.50
2019-05-16T03:39:55.079Z,21.50
2019-05-16T03:42:24.839Z,21.50
2019-05-16T03:44:54.527Z,21.60
2019-05-16T03:47:24.232Z,21.60
2019-05-16T03:49:54.060Z,21.60
2019-05-16T03:52:23.822Z,21.60
2019-05-16T03:54:53.687Z,21.60
2019-05-16T03:57:23.533Z,21.50
2019-05-16T03:59:53.319Z,21.50
2019-05-16T04:02:23.014Z,21.50
2019-05-16T04:04:52.675Z,21.50
2019-05-16T04:07:22.464Z,21.50
2019-05-16T04:09:52.234Z,21.50
2019-05-16T04:12:21.901Z,21.50
2019-05-16T04:14:51.601Z,21.40
2019-05-16T04:17:21.361Z,21.40
2019-05-16T04:19:51.159Z,21.40
2019-05-16T04:22:21.431Z,21.40
2019-05-16T04:24:51.470Z,21.40
2019-05-16T04:27:21.694Z,21.40
2019-05-16T04:29:51.642Z,21.40
2019-05-16T04:32:21.389Z,21.40
2019-05-16T04:34:51.338Z,21.40
2019-05-16T04:37:25.632Z,21.50
2019-05-16T04:39:52.733Z,21.50
2019-05-16T04:42:22.486Z,21.50
2019-05-16T04:44:52.176Z,21.50
2019-05-16T04:47:21.864Z,21.50
2019-05-16T04:49:52.128Z,21.50
2019-05-16T04:52:22.026Z,21.50
2019-05-16T04:54:51.911Z,21.50
2019-05-16T04:57:21.618Z,21.50
2019-05-16T04:59:51.289Z,21.50
2019-05-16T05:02:21.444Z,21.50
2019-05-16T05:04:51.217Z,21.50
2019-05-16T05:07:21.019Z,21.50
2019-05-16T05:09:51.403Z,21.50
2019-05-16T05:12:21.204Z,21.50
2019-05-16T05:14:51.232Z,21.50
2019-05-16T05:17:21.261Z,21.40
2019-05-16T05:19:51.023Z,21.50
2019-05-16T05:22:21.687Z,21.50
2019-05-16T05:24:51.383Z,21.40
2019-05-16T05:27:21.130Z,21.40
2019-05-16T05:29:50.792Z,21.40
2019-05-16T05:32:20.469Z,21.40
2019-05-16T05:34:50.403Z,21.40
2019-05-16T05:37:20.534Z,21.40
2019-05-16T05:39:51.297Z,21.40
2019-05-16T05:42:20.995Z,21.40
2019-05-16T05:44:51.999Z,21.40
2019-05-16T05:47:21.687Z,21.40
2019-05-16T05:49:51.369Z,21.40
2019-05-16T05:52:21.067Z,21.40
2019-05-16T05:54:50.800Z,21.40
2019-05-16T05:57:20.976Z,21.40
2019-05-16T05:59:50.834Z,21.40
2019-05-16T06:02:20.526Z,21.40
2019-05-16T06:04:50.333Z,21.40
2019-05-16T06:07:20.468Z,21.50
2019-05-16T06:09:55.514Z,21.60
2019-05-16T06:12:21.834Z,21.50
2019-05-16T06:14:51.559Z,21.60
2019-05-16T06:17:21.368Z,21.50
2019-05-16T06:19:51.221Z,21.50
2019-05-16T06:22:20.895Z,21.50
2019-05-16T06:24:50.684Z,21.50
2019-05-16T06:27:21.055Z,21.50
2019-05-16T06:29:50.781Z,21.50
2019-05-16T06:32:20.595Z,21.60
2019-05-16T06:34:50.849Z,21.50
2019-05-16T06:37:20.705Z,21.60
2019-05-16T06:39:50.468Z,21.60
2019-05-16T06:42:20.722Z,21.60
2019-05-16T06:44:50.533Z,21.60
2019-05-16T06:47:22.966Z,21.60
2019-05-16T06:49:51.676Z,21.60
2019-05-16T06:52:21.432Z,21.60
2019-05-16T06:54:53.889Z,21.70
2019-05-16T06:57:23.691Z,21.70
2019-05-16T06:59:53.527Z,21.70
2019-05-16T07:02:30.354Z,21.70
2019-05-16T07:04:54.720Z,21.60
2019-05-16T07:07:24.467Z,21.60
2019-05-16T07:09:59.951Z,21.60
2019-05-16T07:12:25.545Z,21.60
2019-05-16T07:14:55.372Z,21.50
2019-05-16T07:17:25.141Z,21.50
2019-05-16T07:19:54.832Z,21.60
2019-05-16T07:22:24.601Z,21.80
2019-05-16T07:24:54.276Z,21.80
2019-05-16T07:27:23.951Z,21.80
2019-05-16T07:29:53.698Z,21.80
2019-05-16T07:32:23.452Z,21.70
2019-05-16T07:34:53.287Z,21.70
2019-05-16T07:37:23.061Z,21.70
2019-05-16T07:39:52.847Z,21.70
2019-05-16T07:42:22.511Z,21.70
2019-05-16T07:44:52.183Z,21.70
2019-05-16T07:47:21.925Z,21.80
2019-05-16T07:49:51.668Z,21.90
2019-05-16T07:52:21.415Z,21.90
2019-05-16T07:54:51.343Z,21.90
2019-05-16T07:57:23.050Z,21.90
2019-05-16T07:59:52.468Z,21.90
2019-05-16T08:02:22.162Z,22.00
2019-05-16T08:04:51.833Z,22.10
2019-05-16T08:07:21.622Z,22.20
2019-05-16T08:09:51.405Z,22.40
2019-05-16T08:12:26.058Z,22.60
2019-05-16T08:14:52.455Z,22.60
2019-05-16T08:17:22.221Z,22.50
2019-05-16T08:19:51.926Z,22.40
2019-05-16T08:24:53.072Z,22.30
2019-05-16T08:27:22.849Z,22.20
2019-05-16T08:29:52.543Z,22.20
2019-05-16T08:32:23.158Z,22.10
2019-05-16T08:34:52.998Z,22.10
2019-05-16T08:39:54.127Z,22.10
2019-05-16T08:42:23.794Z,22.10
2019-05-16T08:44:53.496Z,22.10
2019-05-16T08:47:23.327Z,22.20
2019-05-16T08:49:53.007Z,22.30
2019-05-16T08:52:22.717Z,22.50
2019-05-16T08:54:52.477Z,22.90
2019-05-16T08:57:27.736Z,23.00
2019-05-16T08:59:53.532Z,23.10
2019-05-16T09:02:32.359Z,23.10
2019-05-16T09:04:54.752Z,22.90
2019-05-16T09:07:24.505Z,22.80
2019-05-16T09:09:59.833Z,22.70
2019-05-16T09:10:28.430Z,22.10
2019-05-16T09:10:35.265Z,22.30
2019-05-16T09:12:27.854Z,22.60
2019-05-16T09:14:59.417Z,22.70
2019-05-16T09:17:29.346Z,22.80
2019-05-16T09:19:59.017Z,23.00
2019-05-16T09:22:29.816Z,23.30
2019-05-16T09:24:59.566Z,23.30
2019-05-16T09:27:29.333Z,23.50
2019-05-16T09:29:59.007Z,23.40
2019-05-16T09:32:28.682Z,23.30
2019-05-16T09:34:58.454Z,23.10
2019-05-16T09:37:28.129Z,23.00
2019-05-16T09:39:57.969Z,23.20
2019-05-16T09:42:28.074Z,23.00
2019-05-16T09:44:58.102Z,23.00
2019-05-16T09:47:28.467Z,23.00
2019-05-16T09:49:58.364Z,23.00
2019-05-16T09:52:28.115Z,23.00
2019-05-16T09:54:57.951Z,23.00
2019-05-16T09:57:28.644Z,22.90
2019-05-16T09:59:58.328Z,22.80
2019-05-16T10:02:28.172Z,22.90
2019-05-16T10:04:58.215Z,22.80
2019-05-16T10:07:28.448Z,22.70
2019-05-16T10:09:58.457Z,22.50
2019-05-16T10:12:28.231Z,22.40
2019-05-16T10:14:59.673Z,22.40
2019-05-16T10:17:29.948Z,22.30
2019-05-16T10:20:00.249Z,22.30
2019-05-16T10:22:30.178Z,22.30
2019-05-16T10:24:59.996Z,22.30
2019-05-16T10:27:29.770Z,22.20
2019-05-16T10:30:01.256Z,22.20
2019-05-16T10:32:30.887Z,22.20
2019-05-16T10:35:00.704Z,22.10
2019-05-16T10:37:30.409Z,22.10
2019-05-16T10:40:00.170Z,22.10
2019-05-16T10:42:31.011Z,22.10
2019-05-16T10:45:00.792Z,22.10
2019-05-16T10:47:31.347Z,22.10
2019-05-16T10:50:01.291Z,22.10
2019-05-16T10:52:31.051Z,22.00
2019-05-16T10:55:02.461Z,22.00
2019-05-16T10:57:32.239Z,22.00
2019-05-16T11:00:13.084Z,21.90
2019-05-16T11:02:36.983Z,21.90
2019-05-16T11:05:22.687Z,21.90
2019-05-16T11:07:37.959Z,21.90
2019-05-16T11:10:07.870Z,21.90
2019-05-16T11:12:47.466Z,21.90
2019-05-16T11:15:11.322Z,22.00
2019-05-16T11:17:41.631Z,22.10
2019-05-16T11:20:11.647Z,22.10
2019-05-16T11:22:41.430Z,22.10
2019-05-16T11:25:24.154Z,22.00
2019-05-16T11:27:43.016Z,22.00
2019-05-16T11:30:13.147Z,22.00
2019-05-16T11:32:42.942Z,22.00
2019-05-16T11:35:13.416Z,22.00
2019-05-16T11:37:43.091Z,22.00
2019-05-16T11:40:13.208Z,22.10
2019-05-16T11:42:42.951Z,22.10
2019-05-16T11:45:12.892Z,22.20
2019-05-16T11:47:42.632Z,22.30
2019-05-16T11:50:12.676Z,22.50
2019-05-16T11:52:42.488Z,22.60
2019-05-16T11:55:12.732Z,22.70
2019-05-16T11:57:42.477Z,22.70
2019-05-16T12:00:17.460Z,22.80
2019-05-16T12:02:47.749Z,22.90
2019-05-16T12:05:17.483Z,22.90
2019-05-16T12:07:48.592Z,22.90
2019-05-16T12:10:20.365Z,22.80
2019-05-16T12:12:50.164Z,22.70
2019-05-16T12:15:20.339Z,22.70
2019-05-16T12:18:00.785Z,22.80
2019-05-16T12:20:21.572Z,22.80
2019-05-16T12:22:54.608Z,22.80
2019-05-16T12:25:24.465Z,22.80
2019-05-16T12:27:56.754Z,22.80
2019-05-16T12:30:25.672Z,22.70
2019-05-16T12:32:58.143Z,22.60
2019-05-16T12:35:27.684Z,22.50
2019-05-16T12:37:57.579Z,22.50
2019-05-16T12:40:27.286Z,22.40
2019-05-16T12:42:57.345Z,22.30
2019-05-16T12:45:27.632Z,22.20
2019-05-16T12:47:57.536Z,22.10
2019-05-16T12:50:29.033Z,22.10
2019-05-16T12:52:58.824Z,22.00
2019-05-16T12:55:28.584Z,22.00
2019-05-16T12:58:12.330Z,21.90
2019-05-16T13:00:29.808Z,21.90
2019-05-16T13:02:59.549Z,21.90
2019-05-16T13:05:29.427Z,21.90
2019-05-16T13:07:59.241Z,21.90
2019-05-16T13:10:29.027Z,21.90
2019-05-16T13:12:58.673Z,21.90
2019-05-16T13:15:28.461Z,21.90
2019-05-16T13:17:58.146Z,21.90
2019-05-16T13:20:27.901Z,21.90
2019-05-16T13:22:57.662Z,21.90
2019-05-16T13:25:27.731Z,21.80
2019-05-16T13:27:57.902Z,21.80
2019-05-16T13:30:27.799Z,21.80
2019-05-16T13:32:57.529Z,21.80
2019-05-16T13:35:27.355Z,21.80
2019-05-16T13:37:58.046Z,21.80
2019-05-16T13:40:27.893Z,21.90
2019-05-16T13:42:57.664Z,21.90
2019-05-16T13:45:27.554Z,21.90
2019-05-16T13:47:57.460Z,22.00
2019-05-16T13:50:27.433Z,22.00
2019-05-16T13:52:58.339Z,22.10
2019-05-16T13:55:29.376Z,22.10
2019-05-16T13:57:59.313Z,22.10
2019-05-16T14:00:29.154Z,22.00
2019-05-16T14:02:58.949Z,22.00
2019-05-16T14:05:28.776Z,22.10
2019-05-16T14:07:58.540Z,22.00
2019-05-16T14:10:29.629Z,22.00
2019-05-16T14:12:59.865Z,22.00
2019-05-16T14:15:29.627Z,22.00
2019-05-16T14:17:59.335Z,22.00
2019-05-16T14:20:29.018Z,22.00
2019-05-16T14:23:01.651Z,21.90
2019-05-16T14:25:30.283Z,22.00
2019-05-16T14:27:59.987Z,22.00
2019-05-16T14:30:30.705Z,22.00
2019-05-16T14:33:02.064Z,22.00
2019-05-16T14:35:32.026Z,22.00
2019-05-16T14:38:01.773Z,22.10
2019-05-16T14:40:31.677Z,22.10
2019-05-16T14:43:01.372Z,22.00
2019-05-16T14:45:31.043Z,22.00
2019-05-16T14:48:00.743Z,21.90
2019-05-16T14:50:30.586Z,21.90
2019-05-16T14:53:00.289Z,21.80
2019-05-16T14:55:29.951Z,21.80
2019-05-16T14:57:59.630Z,21.80
2019-05-16T15:00:29.442Z,21.70
2019-05-16T15:02:59.133Z,21.70
2019-05-16T15:05:28.884Z,21.70
2019-05-16T15:07:58.624Z,21.70
2019-05-16T15:10:28.372Z,21.80
2019-05-16T15:12:58.064Z,21.70
2019-05-16T15:15:28.230Z,21.70
2019-05-16T15:17:58.153Z,21.70
2019-05-16T15:20:28.145Z,21.60
2019-05-16T15:23:00.299Z,21.70
2019-05-16T15:25:30.075Z,21.70
2019-05-16T15:28:00.492Z,21.70
2019-05-16T15:30:30.502Z,21.70
2019-05-16T15:33:00.349Z,21.70
2019-05-16T15:35:30.439Z,21.70
2019-05-16T15:38:00.491Z,21.70
2019-05-16T15:40:30.203Z,21.70
2019-05-16T15:42:59.900Z,21.70
2019-05-16T15:45:43.021Z,21.60
2019-05-16T15:48:10.651Z,21.60
2019-05-16T15:50:41.155Z,21.60
2019-05-16T15:53:11.075Z,21.60
2019-05-16T15:55:40.915Z,21.40
2019-05-16T15:58:10.719Z,21.40
2019-05-16T16:00:48.056Z,21.40
2019-05-16T16:03:17.860Z,21.40
2019-05-16T16:05:47.597Z,21.50
2019-05-16T16:08:18.121Z,21.50
2019-05-16T16:10:48.297Z,21.60
2019-05-16T16:13:19.982Z,21.60
2019-05-16T16:15:53.968Z,21.60
2019-05-16T16:18:21.885Z,21.60
2019-05-16T16:20:52.053Z,21.60
2019-05-16T16:23:21.859Z,21.60
2019-05-16T16:25:51.995Z,21.60
2019-05-16T16:28:21.891Z,21.60
2019-05-16T16:30:51.659Z,21.60
2019-05-16T16:33:26.259Z,21.50
2019-05-16T16:35:53.863Z,21.60
2019-05-16T16:38:23.565Z,21.50
2019-05-16T16:40:53.331Z,21.50
2019-05-16T16:43:24.242Z,21.50
2019-05-16T16:46:06.016Z,21.50
2019-05-16T16:48:26.627Z,21.50
2019-05-16T16:50:57.434Z,21.50
2019-05-16T16:53:27.571Z,21.60
2019-05-16T16:55:58.253Z,21.50
2019-05-16T16:58:27.967Z,21.60
2019-05-16T17:01:01.460Z,21.50
2019-05-16T17:03:29.988Z,21.50
2019-05-16T17:05:59.761Z,21.60
2019-05-16T17:08:29.453Z,21.60
2019-05-16T17:10:59.240Z,21.60
2019-05-16T17:13:29.031Z,21.60
2019-05-16T17:15:58.731Z,21.60
2019-05-16T17:18:28.449Z,21.60
2019-05-16T17:20:58.201Z,21.60
2019-05-16T17:23:27.965Z,21.60
2019-05-16T17:25:57.720Z,21.60
2019-05-16T17:28:27.482Z,21.60
2019-05-16T17:30:57.322Z,21.60
2019-05-16T17:33:28.517Z,21.60
2019-05-16T17:35:58.766Z,21.60
2019-05-16T17:38:28.479Z,21.60
2019-05-16T17:40:58.260Z,21.60
2019-05-16T17:43:28.052Z,21.60
2019-05-16T17:45:57.840Z,21.60
2019-05-16T17:48:29.906Z,21.60
2019-05-16T17:51:00.111Z,21.50
2019-05-16T17:53:29.905Z,21.60
2019-05-16T17:55:59.949Z,21.60
2019-05-16T17:58:29.695Z,21.60
2019-05-16T18:01:00.387Z,21.60
2019-05-16T18:03:30.500Z,21.50
2019-05-16T18:06:00.299Z,21.50
2019-05-16T18:08:30.015Z,21.50
2019-05-16T18:10:59.792Z,21.60
2019-05-16T18:13:29.480Z,21.60
2019-05-16T18:15:59.323Z,21.60
2019-05-16T18:18:29.119Z,21.60
2019-05-16T18:21:01.976Z,21.50
2019-05-16T18:23:30.288Z,21.50
2019-05-16T18:26:02.091Z,21.50
2019-05-16T18:28:31.426Z,21.50
2019-05-16T18:31:01.113Z,21.40
2019-05-16T18:33:30.805Z,21.40
2019-05-16T18:36:00.548Z,21.40
2019-05-16T18:38:30.420Z,21.40
2019-05-16T18:41:00.182Z,21.40
2019-05-16T18:43:29.961Z,21.40
2019-05-16T18:45:59.771Z,21.40
2019-05-16T18:48:29.612Z,21.40
2019-05-16T18:50:59.347Z,21.40
2019-05-16T18:53:29.053Z,21.40
2019-05-16T18:55:58.832Z,21.40
2019-05-16T18:58:28.614Z,21.40
2019-05-16T19:00:58.462Z,21.40
2019-05-16T19:03:28.249Z,21.40
2019-05-16T19:05:58.041Z,21.40
2019-05-16T19:08:27.815Z,21.40
2019-05-16T19:11:00.051Z,21.40
2019-05-16T19:13:29.176Z,21.40
2019-05-16T19:15:58.881Z,21.40
2019-05-16T19:18:28.720Z,21.40
2019-05-16T19:20:58.580Z,21.40
2019-05-16T19:23:28.299Z,21.40
2019-05-16T19:25:57.995Z,21.30
2019-05-16T19:28:28.687Z,21.40
2019-05-16T19:30:58.699Z,21.40
2019-05-16T19:33:28.484Z,21.40
2019-05-16T19:35:58.220Z,21.40
2019-05-16T19:38:29.374Z,21.40
2019-05-16T19:40:59.401Z,21.40
2019-05-16T19:43:29.199Z,21.40
2019-05-16T19:45:58.947Z,21.40
2019-05-16T19:48:28.799Z,21.40
2019-05-16T19:50:58.495Z,21.30
2019-05-16T19:53:28.409Z,21.40
2019-05-16T19:55:58.092Z,21.40
2019-05-16T19:58:27.838Z,21.40
2019-05-16T20:00:57.667Z,21.40
2019-05-16T20:03:27.499Z,21.40
2019-05-16T20:05:57.517Z,21.40
2019-05-16T20:08:27.311Z,21.40
2019-05-16T20:10:57.257Z,21.50
2019-05-16T20:13:27.568Z,21.50
2019-05-16T20:15:57.466Z,21.50
2019-05-16T20:18:27.560Z,21.50
2019-05-16T20:20:58.494Z,21.50
2019-05-16T20:23:28.199Z,21.50
2019-05-16T20:25:58.023Z,21.50
2019-05-16T20:28:27.698Z,21.50
2019-05-16T20:30:59.856Z,21.50
2019-05-16T20:33:29.036Z,21.50
2019-05-16T20:35:58.786Z,21.50
2019-05-16T20:38:28.731Z,21.50
2019-05-16T20:40:59.897Z,21.50
2019-05-16T20:43:29.690Z,21.50
2019-05-16T20:46:00.584Z,21.50
2019-05-16T20:48:30.761Z,21.50
2019-05-16T20:51:00.474Z,21.50
2019-05-16T20:53:30.194Z,21.50
2019-05-16T20:56:00.063Z,21.50
2019-05-16T20:58:29.773Z,21.50
2019-05-16T21:01:01.560Z,21.60
2019-05-16T21:03:31.120Z,21.60
2019-05-16T21:06:00.908Z,21.60
2019-05-16T21:08:30.595Z,21.60
2019-05-16T21:11:00.396Z,21.60
2019-05-16T21:13:30.120Z,21.60
2019-05-16T21:15:59.900Z,21.60
2019-05-16T21:18:29.582Z,21.60
2019-05-16T21:20:59.459Z,21.60
2019-05-16T21:23:29.233Z,21.60
2019-05-16T21:25:59.049Z,21.60
2019-05-16T21:28:29.196Z,21.50
2019-05-16T21:30:59.339Z,21.60
2019-05-16T21:33:29.027Z,21.60
2019-05-16T21:35:58.854Z,21.60
2019-05-16T21:38:28.647Z,21.60
2019-05-16T21:40:58.636Z,21.60
2019-05-16T21:43:28.409Z,21.60
2019-05-16T21:45:59.636Z,21.60
2019-05-16T21:48:29.372Z,21.50
2019-05-16T21:50:59.166Z,21.50
2019-05-16T21:53:30.045Z,21.60
2019-05-16T21:55:59.929Z,21.50
2019-05-16T21:58:29.646Z,21.50
2019-05-16T22:01:00.249Z,21.50
2019-05-16T22:03:31.847Z,21.50
2019-05-16T22:06:01.705Z,21.50
2019-05-16T22:08:31.650Z,21.50
2019-05-16T22:11:03.267Z,21.50
2019-05-16T22:13:36.597Z,21.50
2019-05-16T22:16:08.098Z,21.50
2019-05-16T22:18:38.550Z,21.50
2019-05-16T22:21:08.553Z,21.50
2019-05-16T22:23:38.363Z,21.50
2019-05-16T22:26:11.263Z,21.50
2019-05-16T22:28:41.115Z,21.50
2019-05-16T22:31:10.964Z,21.50
2019-05-16T22:33:40.811Z,21.50
2019-05-16T22:36:12.207Z,21.50
2019-05-16T22:38:41.931Z,21.50
2019-05-16T22:41:11.845Z,21.50
2019-05-16T22:43:41.655Z,21.50
2019-05-16T22:46:11.443Z,21.50
2019-05-16T22:48:41.220Z,21.50
2019-05-16T22:51:11.055Z,21.50
2019-05-16T22:53:40.833Z,21.50
2019-05-16T22:56:10.531Z,21.50
2019-05-16T22:58:40.399Z,21.50
2019-05-16T23:01:10.343Z,21.50
2019-05-16T23:03:40.078Z,21.50
2019-05-16T23:06:09.852Z,21.50
2019-05-16T23:08:39.583Z,21.50
2019-05-16T23:11:09.259Z,21.50
2019-05-16T23:13:38.987Z,21.50
2019-05-16T23:16:08.675Z,21.50
2019-05-16T23:18:38.368Z,21.50
2019-05-16T23:21:08.043Z,21.50
2019-05-16T23:23:37.846Z,21.50
2019-05-16T23:26:08.629Z,21.50
2019-05-16T23:28:38.340Z,21.50
2019-05-16T23:31:08.021Z,21.50
2019-05-16T23:33:37.734Z,21.50
2019-05-16T23:36:07.510Z,21.50
2019-05-16T23:38:38.280Z,21.50
2019-05-16T23:41:07.986Z,21.50
2019-05-16T23:43:37.694Z,21.50
2019-05-16T23:46:07.540Z,21.50
2019-05-16T23:48:37.438Z,21.40
2019-05-16T23:51:07.943Z,21.40
2019-05-16T23:53:37.720Z,21.40
2019-05-16T23:56:07.705Z,21.50
2019-05-16T23:58:37.487Z,21.40
